»·PEaware :: N172SP KCRQ-KCRQ

N172SP :: KCRQ-KCRQ

FLIGHT INFORMATION

Flight Status: Arrived
Operator: Privately registered:
United States
More flights under this callsign
Pilot: Ron M. (31128)
Aircraft: CESSNA 172 SKYHAWK
(C172)
More flights by this aircraft type
Origin: KCRQ McClellan-Palomar
United States
Destination: KCRQ McClellan-Palomar
United States
More flights between these airports :: More routes between these airports
Route: +
File this flight plan on PilotEdge
Remarks:
Altitude:
(Current/Filed)
3,500ft
Speed:
(Current/Filed)
140kts
Departed: 17-Sep-20 01:36 PM
Arrived: 17-Sep-20 02:25 PM
Distance/Time
Traveled:
0nm/0:49
Distance/Time
To Go:
Arrived

Flight Plot

Page will automatically refresh every two minutes.


Map Options




Map Legend


Flown Route
Filed Route
Departure Airport
Arrival Airport
Navaid (VOR, NDB)
Fix

Horizontal Profiles

Position Reports

Time Latitude Longitude Heading Altitude Ground
Speed
17-Sep-20 13:26 33.128268 -117.273290 348 335ft 0kts
17-Sep-20 13:27 33.128268 -117.273290 348 335ft 0kts
17-Sep-20 13:28 33.128268 -117.273290 348 335ft 0kts
17-Sep-20 13:29 33.128268 -117.273290 348 335ft 0kts
17-Sep-20 13:30 33.128268 -117.273290 348 335ft 0kts
17-Sep-20 13:31 33.128268 -117.273290 348 335ft 0kts
17-Sep-20 13:32 33.128656 -117.272574 72 335ft 11kts
17-Sep-20 13:33 33.128749 -117.272374 1 335ft 0kts
17-Sep-20 13:34 33.128749 -117.272374 1 335ft 0kts
17-Sep-20 13:35 33.128444 -117.280588 266 493ft 70kts
17-Sep-20 13:36 33.130464 -117.303106 289 1408ft 71kts
17-Sep-20 13:37 33.141012 -117.324217 309 2219ft 80kts
17-Sep-20 13:38 33.160651 -117.338057 339 3026ft 86kts
17-Sep-20 13:39 33.181521 -117.351593 327 3796ft 89kts
17-Sep-20 13:40 33.205238 -117.356697 31 4553ft 96kts
17-Sep-20 13:41 33.219867 -117.330824 67 5322ft 93kts
17-Sep-20 13:42 33.228393 -117.300827 75 5754ft 98kts
17-Sep-20 13:43 33.234398 -117.269328 72 5925ft 98kts
17-Sep-20 13:44 33.253005 -117.245937 21 6074ft 100kts
17-Sep-20 13:45 33.278294 -117.232431 37 6002ft 100kts
17-Sep-20 13:46 33.299302 -117.211714 26 5958ft 96kts
17-Sep-20 13:47 33.324164 -117.198282 20 5872ft 98kts
17-Sep-20 13:48 33.349057 -117.184519 34 5802ft 97kts
17-Sep-20 13:49 33.373507 -117.169777 17 5739ft 97kts
17-Sep-20 13:50 33.399871 -117.160338 18 5656ft 100kts
17-Sep-20 13:51 33.425570 -117.150248 15 5637ft 95kts
17-Sep-20 13:52 33.452408 -117.143031 4 5481ft 97kts
17-Sep-20 13:53 33.475461 -117.134419 96 4559ft 102kts
17-Sep-20 13:54 33.471962 -117.139902 261 3413ft 78kts
17-Sep-20 13:55 33.483970 -117.155082 3 4197ft 89kts
17-Sep-20 13:56 33.511150 -117.154007 0 4365ft 102kts
17-Sep-20 13:57 33.539332 -117.151027 9 4421ft 102kts
17-Sep-20 13:58 33.565775 -117.144503 3 4652ft 103kts
17-Sep-20 13:59 33.566298 -117.126371 183 5007ft 87kts
17-Sep-20 14:00 33.543843 -117.137940 227 4863ft 91kts
17-Sep-20 14:01 33.523935 -117.156227 216 4717ft 91kts
17-Sep-20 14:02 33.504178 -117.174444 224 4666ft 88kts
17-Sep-20 14:03 33.480885 -117.181788 190 4419ft 90kts
17-Sep-20 14:04 33.456663 -117.186885 194 4299ft 87kts
17-Sep-20 14:05 33.432533 -117.188446 179 4178ft 86kts
17-Sep-20 14:06 33.408331 -117.186914 170 4235ft 88kts
17-Sep-20 14:07 33.384040 -117.187069 168 4417ft 88kts
17-Sep-20 14:08 33.380922 -117.158132 66 4572ft 103kts
17-Sep-20 14:09 33.404593 -117.154025 294 4631ft 105kts
17-Sep-20 14:10 33.391174 -117.176646 212 4481ft 90kts
17-Sep-20 14:11 33.369406 -117.190150 201 4059ft 90kts
17-Sep-20 14:12 33.346753 -117.201570 213 3611ft 87kts
17-Sep-20 14:13 33.324600 -117.212468 190 3145ft 87kts
17-Sep-20 14:14 33.301290 -117.220893 201 2654ft 87kts
17-Sep-20 14:15 33.277709 -117.227504 183 2440ft 87kts
17-Sep-20 14:16 33.253164 -117.224961 187 2133ft 87kts
17-Sep-20 14:17 33.229616 -117.229962 200 1750ft 82kts
17-Sep-20 14:18 33.205815 -117.229753 171 1480ft 96kts
17-Sep-20 14:19 33.180300 -117.223259 168 1448ft 95kts
17-Sep-20 14:20 33.154076 -117.221928 197 1313ft 99kts
17-Sep-20 14:21 33.134520 -117.237166 245 1153ft 74kts
17-Sep-20 14:22 33.131642 -117.256700 260 691ft 53kts
17-Sep-20 14:23 33.129250 -117.273815 258 335ft 43kts
17-Sep-20 14:24 33.127965 -117.279445 225 335ft 8kts
17-Sep-20 14:25 33.127584 -117.279506 95 335ft 0kts
17-Sep-20 14:26 33.127917 -117.277107 75 335ft 20kts

Navigation Log

Ident Type
Flight plan parsing failed, navigation log unavailable